Time;durP1;ratioP1;P1;durP2;ratioP2;P2;SDS_P1;SDS_P2;PMS_P1;PMS_P2;Temp;Humidity;BMP_temperature;BMP_pressure;BME280_temperature;BME280_humidity;BME280_pressure;Samples;Min_cycle;Max_cycle;Signal;HPM_P1;HPM_P2
2022/10/10 00:00:39;;;;;;;18.67;13.00;;;;;;;;;;4966026;28;20045;-71
2022/10/10 00:03:06;;;;;;;20.73;14.20;;;;;;;;;;4965037;28;20089;-72
2022/10/10 00:05:32;;;;;;;22.33;13.18;;;;;;;;;;4969205;28;20391;-72
2022/10/10 00:07:57;;;;;;;18.33;13.15;;;;;;;;;;4965804;28;20034;-72
2022/10/10 00:10:24;;;;;;;24.17;13.77;;;;;;;;;;4965969;28;20480;-72
2022/10/10 00:12:50;;;;;;;20.55;13.00;;;;;;;;;;4965867;28;20023;-72
2022/10/10 00:15:16;;;;;;;21.10;13.63;;;;;;;;;;4965862;28;20081;-71
2022/10/10 00:17:43;;;;;;;22.38;14.00;;;;;;;;;;4967863;28;20122;-72
2022/10/10 00:20:10;;;;;;;20.45;13.73;;;;;;;;;;4964567;28;20031;-72
2022/10/10 00:22:36;;;;;;;20.63;13.88;;;;;;;;;;4965154;28;20594;-72
2022/10/10 00:25:03;;;;;;;21.52;13.38;;;;;;;;;;4967135;28;20030;-72
2022/10/10 00:27:29;;;;;;;21.55;14.43;;;;;;;;;;4967903;28;20117;-72
2022/10/10 00:29:55;;;;;;;20.38;14.48;;;;;;;;;;4966884;28;20117;-72
2022/10/10 00:32:21;;;;;;;26.85;14.55;;;;;;;;;;4967214;28;20031;-72
2022/10/10 00:34:47;;;;;;;23.70;14.35;;;;;;;;;;4973502;28;20572;-72
2022/10/10 00:37:13;;;;;;;23.02;14.73;;;;;;;;;;4970529;28;20041;-71
2022/10/10 00:39:39;;;;;;;25.38;15.07;;;;;;;;;;4969935;28;20053;-72
2022/10/10 00:42:05;;;;;;;23.23;15.05;;;;;;;;;;4977171;28;20033;-71
2022/10/10 00:44:31;;;;;;;23.42;15.00;;;;;;;;;;4966281;28;20034;-71
2022/10/10 00:46:58;;;;;;;28.42;14.23;;;;;;;;;;4965587;28;20146;-71
2022/10/10 00:49:26;;;;;;;25.20;15.70;;;;;;;;;;4967237;28;20023;-71
2022/10/10 00:51:55;;;;;;;22.65;14.93;;;;;;;;;;4965951;28;20089;-71
2022/10/10 00:54:22;;;;;;;26.17;15.52;;;;;;;;;;4966653;28;20033;-71
2022/10/10 00:56:54;;;;;;;26.88;15.55;;;;;;;;;;4967565;28;20027;-71
2022/10/10 00:59:21;;;;;;;24.20;15.23;;;;;;;;;;4964633;28;20043;-73
2022/10/10 01:01:48;;;;;;;25.10;15.95;;;;;;;;;;4965469;28;20136;-70
2022/10/10 01:04:33;;;;;;;24.95;15.88;;;;;;;;;;4965495;28;20042;-71
2022/10/10 01:07:01;;;;;;;26.77;14.65;;;;;;;;;;4992114;28;20027;-72
2022/10/10 01:09:28;;;;;;;22.70;15.13;;;;;;;;;;4967483;28;20026;-70
2022/10/10 01:12:09;;;;;;;22.75;15.27;;;;;;;;;;4965802;28;20031;-70
2022/10/10 01:14:43;;;;;;;22.52;15.38;;;;;;;;;;4968098;28;20077;-71
2022/10/10 01:17:32;;;;;;;23.48;16.45;;;;;;;;;;4967850;28;20046;-71
2022/10/10 01:20:21;;;;;;;26.45;15.88;;;;;;;;;;4970781;28;20058;-71
2022/10/10 01:22:47;;;;;;;25.65;16.05;;;;;;;;;;4969671;28;20054;-71
2022/10/10 01:25:36;;;;;;;23.90;15.88;;;;;;;;;;4968598;28;20035;-71
2022/10/10 01:28:07;;;;;;;25.70;16.08;;;;;;;;;;4972505;28;20040;-71
2022/10/10 01:30:34;;;;;;;24.90;15.90;;;;;;;;;;4969726;28;20090;-70
2022/10/10 01:33:14;;;;;;;29.55;16.73;;;;;;;;;;4970742;28;20030;-71
2022/10/10 01:35:46;;;;;;;23.20;15.00;;;;;;;;;;4968603;28;20059;-70
2022/10/10 01:38:30;;;;;;;25.90;16.15;;;;;;;;;;4970275;28;20496;-70
2022/10/10 01:40:56;;;;;;;28.25;16.15;;;;;;;;;;4969378;28;20038;-70
2022/10/10 01:43:23;;;;;;;34.92;18.55;;;;;;;;;;4969822;28;20023;-70
2022/10/10 01:45:50;;;;;;;26.80;16.98;;;;;;;;;;4969455;28;20039;-72
2022/10/10 01:48:22;;;;;;;26.67;16.80;;;;;;;;;;4969003;28;20495;-71
2022/10/10 01:50:48;;;;;;;26.77;16.63;;;;;;;;;;4969502;28;20078;-72
2022/10/10 01:53:18;;;;;;;26.67;16.92;;;;;;;;;;4968522;28;20035;-72
2022/10/10 01:55:44;;;;;;;28.75;17.67;;;;;;;;;;4968227;28;20086;-72
2022/10/10 01:58:38;;;;;;;27.85;17.30;;;;;;;;;;4969426;28;20417;-72
2022/10/10 02:01:10;;;;;;;27.38;16.55;;;;;;;;;;4968799;28;20057;-71
2022/10/10 02:03:40;;;;;;;26.60;16.92;;;;;;;;;;4970096;28;20038;-72
2022/10/10 02:06:10;;;;;;;28.23;16.92;;;;;;;;;;4968448;28;20057;-71
2022/10/10 02:08:37;;;;;;;33.92;17.58;;;;;;;;;;4968787;28;20173;-72
2022/10/10 02:11:08;;;;;;;28.23;17.63;;;;;;;;;;4970085;28;20250;-72
2022/10/10 02:13:48;;;;;;;29.77;16.80;;;;;;;;;;4970207;28;20038;-71
2022/10/10 02:16:34;;;;;;;29.52;17.23;;;;;;;;;;4967855;28;20033;-71
2022/10/10 02:19:01;;;;;;;27.02;17.42;;;;;;;;;;4967530;28;20038;-71
2022/10/10 02:21:28;;;;;;;25.60;16.90;;;;;;;;;;4965613;28;20038;-71
2022/10/10 02:23:55;;;;;;;27.83;17.10;;;;;;;;;;4969746;28;20027;-71
2022/10/10 02:26:23;;;;;;;27.77;16.90;;;;;;;;;;4968477;28;20034;-71
2022/10/10 02:28:52;;;;;;;30.17;18.15;;;;;;;;;;4967984;28;20030;-71
2022/10/10 02:31:24;;;;;;;25.48;17.55;;;;;;;;;;4968278;28;20034;-72
2022/10/10 02:33:55;;;;;;;35.45;18.00;;;;;;;;;;4966455;28;20052;-71
2022/10/10 02:36:21;;;;;;;28.85;17.90;;;;;;;;;;4969343;28;20062;-72
2022/10/10 02:38:48;;;;;;;28.20;18.00;;;;;;;;;;4967392;28;20117;-71
2022/10/10 02:41:16;;;;;;;29.50;18.05;;;;;;;;;;4968777;28;20553;-71
2022/10/10 02:43:42;;;;;;;33.50;17.63;;;;;;;;;;4968836;28;20054;-72
2022/10/10 02:46:11;;;;;;;32.88;18.90;;;;;;;;;;4969320;28;20030;-71
2022/10/10 02:48:37;;;;;;;56.25;18.02;;;;;;;;;;4966619;28;20096;-72
2022/10/10 02:51:03;;;;;;;29.88;18.25;;;;;;;;;;4966257;28;20101;-72
2022/10/10 02:53:29;;;;;;;27.63;17.52;;;;;;;;;;4970240;28;20038;-72
2022/10/10 02:55:55;;;;;;;29.23;18.77;;;;;;;;;;4968009;28;20062;-72
2022/10/10 02:58:21;;;;;;;29.00;18.55;;;;;;;;;;4967855;28;20062;-72
2022/10/10 03:00:47;;;;;;;33.22;18.45;;;;;;;;;;4966365;28;20125;-73
2022/10/10 03:03:13;;;;;;;33.00;19.40;;;;;;;;;;4964665;28;20130;-72
2022/10/10 03:05:39;;;;;;;30.08;19.40;;;;;;;;;;4980480;28;20129;-71
2022/10/10 03:08:06;;;;;;;37.00;19.42;;;;;;;;;;4966988;28;20201;-71
2022/10/10 03:10:32;;;;;;;31.92;19.17;;;;;;;;;;4967813;28;20384;-71
2022/10/10 03:12:58;;;;;;;36.67;20.58;;;;;;;;;;4968939;28;20031;-71
2022/10/10 03:15:24;;;;;;;28.95;18.92;;;;;;;;;;4968173;28;20029;-70
2022/10/10 03:17:50;;;;;;;35.17;18.98;;;;;;;;;;4960023;28;20031;-70
2022/10/10 03:20:16;;;;;;;30.58;19.67;;;;;;;;;;4964804;28;20025;-70
2022/10/10 03:22:42;;;;;;;33.90;20.20;;;;;;;;;;4967090;28;20069;-71
2022/10/10 03:25:08;;;;;;;29.13;19.25;;;;;;;;;;4973269;28;20106;-71
2022/10/10 03:27:34;;;;;;;37.10;20.77;;;;;;;;;;4967719;28;20536;-71
2022/10/10 03:30:00;;;;;;;35.03;19.38;;;;;;;;;;4965890;28;20035;-71
2022/10/10 03:32:27;;;;;;;39.15;20.90;;;;;;;;;;4968305;28;20050;-71
2022/10/10 03:34:53;;;;;;;41.70;20.85;;;;;;;;;;4967400;28;20451;-71
2022/10/10 03:37:19;;;;;;;36.97;19.30;;;;;;;;;;4978075;28;20039;-72
2022/10/10 03:39:45;;;;;;;35.15;20.17;;;;;;;;;;4965778;28;20132;-72
2022/10/10 03:42:11;;;;;;;38.35;21.58;;;;;;;;;;4964243;28;20050;-72
2022/10/10 03:44:38;;;;;;;37.17;21.05;;;;;;;;;;4967481;28;20038;-72
2022/10/10 03:47:04;;;;;;;33.67;19.75;;;;;;;;;;4964716;28;20031;-71
2022/10/10 03:49:30;;;;;;;39.80;20.90;;;;;;;;;;4964675;28;20392;-72
2022/10/10 03:51:56;;;;;;;32.03;19.73;;;;;;;;;;4960889;28;20042;-72
2022/10/10 03:54:22;;;;;;;40.03;22.92;;;;;;;;;;4962520;28;20023;-72
2022/10/10 03:56:48;;;;;;;33.08;20.33;;;;;;;;;;4968116;28;20081;-72
2022/10/10 03:59:14;;;;;;;32.38;20.27;;;;;;;;;;4966574;28;20043;-72
2022/10/10 04:01:40;;;;;;;35.78;19.92;;;;;;;;;;4965462;28;20054;-72
2022/10/10 04:04:06;;;;;;;39.42;21.30;;;;;;;;;;4966426;28;20057;-72
2022/10/10 04:06:32;;;;;;;36.47;21.75;;;;;;;;;;4978620;28;20112;-72
2022/10/10 04:08:58;;;;;;;43.60;22.15;;;;;;;;;;4964676;28;20448;-71
2022/10/10 04:11:24;;;;;;;37.70;22.30;;;;;;;;;;4965571;28;20031;-72
2022/10/10 04:13:50;;;;;;;35.95;20.23;;;;;;;;;;4967541;28;20035;-72
2022/10/10 04:16:16;;;;;;;39.08;22.20;;;;;;;;;;4971986;28;20035;-72
2022/10/10 04:18:42;;;;;;;41.20;20.60;;;;;;;;;;4967046;28;20043;-72
2022/10/10 04:21:09;;;;;;;34.83;21.00;;;;;;;;;;4965859;28;20126;-72
2022/10/10 04:23:35;;;;;;;37.83;22.33;;;;;;;;;;4968513;28;20035;-72
2022/10/10 04:26:01;;;;;;;38.22;21.45;;;;;;;;;;4963982;28;20027;-72
2022/10/10 04:28:27;;;;;;;40.78;21.98;;;;;;;;;;4964984;28;20042;-72
2022/10/10 04:30:55;;;;;;;40.45;22.63;;;;;;;;;;4967856;28;20379;-71
2022/10/10 04:33:21;;;;;;;38.38;22.20;;;;;;;;;;4967453;28;20035;-72
2022/10/10 04:35:49;;;;;;;34.00;21.13;;;;;;;;;;4965676;28;20086;-72
2022/10/10 04:38:15;;;;;;;31.40;20.48;;;;;;;;;;4966706;28;20031;-72
2022/10/10 04:40:41;;;;;;;39.35;22.00;;;;;;;;;;4966598;28;20145;-72
2022/10/10 04:43:07;;;;;;;34.80;21.50;;;;;;;;;;4966957;28;20065;-72
2022/10/10 04:45:33;;;;;;;40.45;22.20;;;;;;;;;;4974880;28;20056;-72
2022/10/10 04:47:59;;;;;;;37.88;21.60;;;;;;;;;;4967508;28;20043;-72
2022/10/10 04:50:25;;;;;;;36.47;22.17;;;;;;;;;;4970919;28;20476;-72
2022/10/10 04:52:51;;;;;;;51.75;24.00;;;;;;;;;;4966902;28;20037;-71
2022/10/10 04:55:17;;;;;;;46.85;22.40;;;;;;;;;;4970968;28;20050;-72
2022/10/10 04:57:43;;;;;;;38.20;22.95;;;;;;;;;;4968449;28;20089;-72
2022/10/10 05:00:09;;;;;;;40.83;20.67;;;;;;;;;;4969743;28;20058;-72
2022/10/10 05:02:35;;;;;;;41.05;22.23;;;;;;;;;;4976773;28;20038;-72
2022/10/10 05:05:02;;;;;;;41.10;21.88;;;;;;;;;;4970994;28;20038;-72
2022/10/10 05:07:28;;;;;;;41.65;22.23;;;;;;;;;;4965842;28;20125;-71
2022/10/10 05:09:54;;;;;;;39.28;21.48;;;;;;;;;;4968448;28;20027;-71
2022/10/10 05:12:20;;;;;;;42.17;23.88;;;;;;;;;;4968393;28;20142;-71
2022/10/10 05:14:46;;;;;;;38.60;22.05;;;;;;;;;;4972876;28;20110;-71
2022/10/10 05:17:12;;;;;;;46.75;22.52;;;;;;;;;;4968076;28;20193;-75
2022/10/10 05:19:38;;;;;;;40.35;23.52;;;;;;;;;;4965764;28;20086;-71
2022/10/10 05:22:04;;;;;;;43.42;23.75;;;;;;;;;;4978617;28;20043;-71
2022/10/10 05:24:30;;;;;;;46.88;23.63;;;;;;;;;;4969321;28;20114;-71
2022/10/10 05:26:56;;;;;;;42.58;24.83;;;;;;;;;;4967400;28;20058;-71
2022/10/10 05:29:22;;;;;;;44.65;25.13;;;;;;;;;;4968782;28;20026;-71
2022/10/10 05:31:48;;;;;;;47.25;26.33;;;;;;;;;;4969268;28;20038;-70
2022/10/10 05:34:14;;;;;;;44.85;25.45;;;;;;;;;;4968907;28;20038;-70
2022/10/10 05:36:41;;;;;;;48.33;25.20;;;;;;;;;;4968405;28;20579;-71
2022/10/10 05:39:07;;;;;;;44.22;22.80;;;;;;;;;;4969157;28;20026;-72
2022/10/10 05:41:33;;;;;;;41.72;24.65;;;;;;;;;;4969488;28;20039;-71
2022/10/10 05:43:59;;;;;;;41.17;23.58;;;;;;;;;;4972293;28;20027;-72
2022/10/10 05:46:26;;;;;;;49.50;24.17;;;;;;;;;;4965223;28;20117;-71
2022/10/10 05:48:52;;;;;;;44.45;25.08;;;;;;;;;;4968283;28;20034;-72
2022/10/10 05:51:19;;;;;;;44.85;24.20;;;;;;;;;;4968531;28;20814;-72
2022/10/10 05:53:45;;;;;;;48.10;24.27;;;;;;;;;;4968093;28;20066;-71
2022/10/10 05:56:13;;;;;;;45.65;25.33;;;;;;;;;;4969372;28;20419;-70
2022/10/10 05:58:39;;;;;;;40.20;23.45;;;;;;;;;;4967220;28;20038;-72
2022/10/10 06:01:06;;;;;;;49.95;25.77;;;;;;;;;;4968262;28;20050;-71
2022/10/10 06:03:32;;;;;;;55.10;26.63;;;;;;;;;;4968079;28;20397;-70
2022/10/10 06:05:58;;;;;;;55.53;27.30;;;;;;;;;;4971115;28;20035;-70
2022/10/10 06:08:26;;;;;;;52.95;28.05;;;;;;;;;;4971530;28;20027;-70
2022/10/10 06:10:52;;;;;;;45.10;25.15;;;;;;;;;;4972252;28;20058;-70
2022/10/10 06:13:26;;;;;;;47.83;25.77;;;;;;;;;;4979430;28;20031;-70
2022/10/10 06:15:53;;;;;;;50.42;26.92;;;;;;;;;;4965235;28;20117;-70
2022/10/10 06:18:20;;;;;;;54.33;26.02;;;;;;;;;;4994491;28;20026;-70
2022/10/10 06:20:46;;;;;;;52.53;25.67;;;;;;;;;;4967847;28;20675;-70
2022/10/10 06:23:12;;;;;;;52.83;28.20;;;;;;;;;;4967179;28;20041;-70
2022/10/10 06:25:38;;;;;;;43.78;25.25;;;;;;;;;;4985917;28;20046;-70
2022/10/10 06:28:04;;;;;;;47.55;25.30;;;;;;;;;;4972643;28;20038;-70
2022/10/10 06:30:31;;;;;;;52.10;25.55;;;;;;;;;;4968289;28;20116;-70
2022/10/10 06:32:57;;;;;;;39.65;24.05;;;;;;;;;;4976670;28;20579;-70
2022/10/10 06:35:23;;;;;;;29.33;18.80;;;;;;;;;;4996902;28;20057;-70
2022/10/10 06:37:49;;;;;;;35.58;19.70;;;;;;;;;;4993358;28;20038;-70
2022/10/10 06:40:15;;;;;;;31.95;17.23;;;;;;;;;;4978561;28;20113;-70
2022/10/10 06:42:41;;;;;;;32.25;18.83;;;;;;;;;;4983686;28;20070;-70
2022/10/10 06:45:08;;;;;;;30.38;16.73;;;;;;;;;;4972072;28;20495;-70
2022/10/10 06:47:34;;;;;;;32.78;16.92;;;;;;;;;;4970274;28;20054;-70
2022/10/10 06:50:00;;;;;;;26.45;14.00;;;;;;;;;;4972812;28;20038;-70
2022/10/10 06:52:26;;;;;;;25.70;13.43;;;;;;;;;;4967849;28;20510;-71
2022/10/10 06:54:52;;;;;;;23.35;13.52;;;;;;;;;;4970285;28;20065;-70
2022/10/10 06:57:18;;;;;;;20.77;13.55;;;;;;;;;;4969565;28;20049;-70
2022/10/10 06:59:44;;;;;;;23.67;12.30;;;;;;;;;;4975775;28;20035;-70
2022/10/10 07:02:13;;;;;;;17.88;11.75;;;;;;;;;;4979963;28;20132;-70
2022/10/10 07:04:39;;;;;;;25.65;11.10;;;;;;;;;;4984843;28;20555;-70
2022/10/10 07:07:05;;;;;;;24.27;11.15;;;;;;;;;;4982217;28;20039;-70
2022/10/10 07:09:31;;;;;;;19.50;11.23;;;;;;;;;;4970373;28;20484;-70
2022/10/10 07:11:57;;;;;;;18.30;11.10;;;;;;;;;;4972217;28;20062;-70
2022/10/10 07:14:23;;;;;;;22.67;11.88;;;;;;;;;;4970500;28;20528;-70
2022/10/10 07:16:49;;;;;;;19.33;10.52;;;;;;;;;;4974126;28;20034;-70
2022/10/10 07:19:15;;;;;;;21.85;11.20;;;;;;;;;;4978947;28;20106;-70
2022/10/10 07:21:41;;;;;;;20.90;10.60;;;;;;;;;;4971959;28;20050;-70
2022/10/10 07:24:08;;;;;;;24.35;11.27;;;;;;;;;;4971557;28;20038;-70
2022/10/10 07:26:37;;;;;;;15.32;10.65;;;;;;;;;;4972220;28;20089;-71
2022/10/10 07:29:03;;;;;;;20.30;10.32;;;;;;;;;;4966951;28;20122;-71
2022/10/10 07:31:29;;;;;;;17.75;10.27;;;;;;;;;;4970737;28;20042;-70
2022/10/10 07:33:55;;;;;;;20.45;10.00;;;;;;;;;;4972791;28;20046;-71
2022/10/10 07:36:21;;;;;;;20.77;10.50;;;;;;;;;;4969647;28;21796;-71
2022/10/10 07:38:53;;;;;;;19.60;10.13;;;;;;;;;;4980120;28;20030;-71
2022/10/10 07:41:20;;;;;;;17.77;10.65;;;;;;;;;;4971057;28;20034;-70
2022/10/10 07:43:46;;;;;;;20.20;10.90;;;;;;;;;;4968291;28;20041;-70
2022/10/10 07:46:16;;;;;;;16.13;10.20;;;;;;;;;;4972552;28;20066;-70
2022/10/10 07:48:42;;;;;;;21.20;10.70;;;;;;;;;;4971147;28;20031;-71
2022/10/10 07:51:09;;;;;;;18.50;10.43;;;;;;;;;;4975029;28;20027;-71
2022/10/10 07:53:35;;;;;;;19.70;10.23;;;;;;;;;;4970011;28;20128;-71
2022/10/10 07:56:03;;;;;;;18.35;10.25;;;;;;;;;;4988777;28;20062;-72
2022/10/10 07:58:29;;;;;;;20.25;10.18;;;;;;;;;;4970755;28;20038;-71
2022/10/10 08:01:03;;;;;;;15.15;9.30;;;;;;;;;;4969213;28;20097;-71
2022/10/10 08:03:29;;;;;;;19.50;9.50;;;;;;;;;;4969050;28;20135;-71
2022/10/10 08:05:55;;;;;;;18.17;9.35;;;;;;;;;;4969656;28;20423;-71
2022/10/10 08:08:21;;;;;;;18.55;9.40;;;;;;;;;;4969588;28;20111;-71
2022/10/10 08:10:47;;;;;;;27.08;9.60;;;;;;;;;;4970342;28;20030;-71
2022/10/10 08:13:13;;;;;;;17.15;8.65;;;;;;;;;;4968961;28;20542;-71
2022/10/10 08:15:39;;;;;;;18.88;8.23;;;;;;;;;;4970116;28;20035;-71
2022/10/10 08:18:05;;;;;;;16.92;9.13;;;;;;;;;;4970547;28;20550;-71
2022/10/10 08:20:31;;;;;;;20.10;9.48;;;;;;;;;;4984105;28;20504;-72
2022/10/10 08:22:57;;;;;;;16.20;8.27;;;;;;;;;;4969006;28;20083;-71
2022/10/10 08:25:24;;;;;;;15.40;8.65;;;;;;;;;;4969313;28;20038;-71
2022/10/10 08:27:50;;;;;;;18.42;8.35;;;;;;;;;;4967797;28;20583;-71
2022/10/10 08:30:16;;;;;;;17.55;9.20;;;;;;;;;;4968867;28;20048;-71
2022/10/10 08:32:42;;;;;;;19.67;9.07;;;;;;;;;;4976911;28;20460;-71
2022/10/10 08:35:08;;;;;;;17.05;9.70;;;;;;;;;;4981046;28;20027;-71
2022/10/10 08:37:34;;;;;;;19.00;10.38;;;;;;;;;;4968864;28;20491;-71
2022/10/10 08:40:00;;;;;;;17.58;10.57;;;;;;;;;;4970118;28;20030;-71
2022/10/10 08:42:36;;;;;;;20.70;9.77;;;;;;;;;;4970322;28;20485;-71
2022/10/10 08:45:04;;;;;;;16.98;9.63;;;;;;;;;;4958037;28;20026;-71
2022/10/10 08:47:44;;;;;;;20.63;9.75;;;;;;;;;;4968534;28;20066;-71
2022/10/10 08:50:13;;;;;;;18.83;10.80;;;;;;;;;;4980891;28;20034;-71
2022/10/10 08:53:12;;;;;;;19.58;10.95;;;;;;;;;;4974441;28;20050;-70
2022/10/10 08:55:39;;;;;;;17.77;9.32;;;;;;;;;;4979175;28;20042;-71
2022/10/10 08:58:09;;;;;;;18.88;9.25;;;;;;;;;;4969489;28;20106;-70
2022/10/10 09:00:38;;;;;;;18.52;9.57;;;;;;;;;;4970374;28;20054;-71
2022/10/10 09:03:12;;;;;;;16.77;9.07;;;;;;;;;;4974186;28;20485;-71
2022/10/10 09:05:50;;;;;;;20.65;9.77;;;;;;;;;;4971862;28;20035;-71
2022/10/10 09:08:34;;;;;;;18.80;10.38;;;;;;;;;;4972032;28;20066;-71
2022/10/10 09:11:00;;;;;;;17.27;9.30;;;;;;;;;;4970337;28;20054;-71
2022/10/10 09:13:47;;;;;;;24.38;9.95;;;;;;;;;;4984000;28;20027;-70
2022/10/10 09:16:22;;;;;;;23.67;11.43;;;;;;;;;;4972194;28;20113;-70
2022/10/10 09:18:53;;;;;;;16.55;9.40;;;;;;;;;;4969668;28;20516;-70
2022/10/10 09:21:25;;;;;;;22.63;9.68;;;;;;;;;;4972862;28;20459;-71
2022/10/10 09:24:02;;;;;;;20.10;9.65;;;;;;;;;;4969385;28;20041;-70
2022/10/10 09:26:30;;;;;;;18.35;9.98;;;;;;;;;;4972682;28;20035;-70
2022/10/10 09:29:22;;;;;;;22.20;9.98;;;;;;;;;;4957900;28;20040;-71
2022/10/10 09:31:50;;;;;;;18.88;10.02;;;;;;;;;;4956724;28;20054;-71
2022/10/10 09:34:18;;;;;;;20.48;9.82;;;;;;;;;;4970844;28;20031;-70
2022/10/10 09:36:46;;;;;;;30.38;11.00;;;;;;;;;;4972522;28;20059;-70
2022/10/10 09:39:27;;;;;;;19.58;9.68;;;;;;;;;;4974198;28;20046;-70
2022/10/10 09:42:00;;;;;;;17.83;9.80;;;;;;;;;;4966376;28;20050;-71
2022/10/10 09:44:27;;;;;;;23.23;10.35;;;;;;;;;;4973664;28;20508;-71
2022/10/10 09:46:54;;;;;;;23.67;9.95;;;;;;;;;;4972140;28;20042;-70
2022/10/10 09:49:20;;;;;;;20.05;9.20;;;;;;;;;;4973683;28;20029;-71
2022/10/10 09:51:48;;;;;;;19.90;9.15;;;;;;;;;;4972615;28;20085;-71
2022/10/10 09:54:15;;;;;;;22.48;9.27;;;;;;;;;;4970604;28;20437;-71
2022/10/10 09:56:46;;;;;;;16.50;9.90;;;;;;;;;;4976370;28;20035;-71
2022/10/10 09:59:30;;;;;;;15.25;8.90;;;;;;;;;;4972480;28;20049;-70
2022/10/10 10:02:03;;;;;;;16.80;8.10;;;;;;;;;;4972512;28;20034;-71
2022/10/10 10:04:32;;;;;;;17.45;8.93;;;;;;;;;;4972490;28;20480;-70
2022/10/10 10:07:07;;;;;;;17.67;8.02;;;;;;;;;;4972607;28;20046;-71
2022/10/10 10:09:33;;;;;;;17.42;8.43;;;;;;;;;;4970195;28;20041;-70
2022/10/10 10:12:00;;;;;;;18.98;8.30;;;;;;;;;;4984178;28;20035;-70
2022/10/10 10:14:30;;;;;;;18.48;8.02;;;;;;;;;;4972842;28;20055;-71
2022/10/10 10:17:05;;;;;;;16.27;9.02;;;;;;;;;;4975467;28;20495;-71
2022/10/10 10:19:35;;;;;;;14.98;7.68;;;;;;;;;;4961962;28;20027;-71
2022/10/10 10:22:02;;;;;;;19.05;8.20;;;;;;;;;;4972446;28;20031;-70
2022/10/10 10:24:31;;;;;;;16.90;8.77;;;;;;;;;;4971645;28;20035;-72
2022/10/10 10:27:07;;;;;;;13.88;8.20;;;;;;;;;;4971474;28;20042;-71
2022/10/10 10:29:33;;;;;;;16.70;8.30;;;;;;;;;;4967371;28;20041;-71
2022/10/10 10:32:14;;;;;;;19.48;8.98;;;;;;;;;;4973407;28;20035;-70
2022/10/10 10:34:52;;;;;;;27.55;8.98;;;;;;;;;;4970871;28;20029;-71
2022/10/10 10:37:18;;;;;;;23.80;8.85;;;;;;;;;;4971987;28;20039;-71
2022/10/10 10:39:47;;;;;;;20.48;9.32;;;;;;;;;;4971426;28;20495;-71
2022/10/10 10:42:31;;;;;;;19.75;9.38;;;;;;;;;;4971079;28;20488;-71
2022/10/10 10:44:57;;;;;;;17.27;8.23;;;;;;;;;;4971372;28;20049;-71
2022/10/10 10:47:42;;;;;;;17.35;8.48;;;;;;;;;;4974928;28;20031;-70
2022/10/10 10:50:18;;;;;;;23.00;10.05;;;;;;;;;;5002004;28;20027;-70
2022/10/10 10:52:44;;;;;;;17.92;8.05;;;;;;;;;;4971375;28;20050;-71
2022/10/10 10:55:19;;;;;;;15.68;8.05;;;;;;;;;;4973667;28;20035;-70
2022/10/10 10:57:45;;;;;;;14.70;8.45;;;;;;;;;;4972294;28;20062;-71
2022/10/10 11:00:16;;;;;;;14.85;8.57;;;;;;;;;;4968197;28;20081;-70
2022/10/10 11:02:42;;;;;;;;;;;;;;;;;;4977628;28;20488;-71
2022/10/10 11:05:26;;;;;;;18.25;8.73;;;;;;;;;;4971989;28;19993;-70
2022/10/10 11:07:58;;;;;;;17.55;9.15;;;;;;;;;;4969613;28;20034;-70
2022/10/10 11:10:36;;;;;;;17.80;8.32;;;;;;;;;;4960103;28;20395;-70
2022/10/10 11:13:08;;;;;;;14.32;8.48;;;;;;;;;;4970571;28;20030;-71
2022/10/10 11:15:38;;;;;;;19.48;9.20;;;;;;;;;;4971619;28;20061;-70
2022/10/10 11:18:10;;;;;;;21.00;8.52;;;;;;;;;;4974708;28;20096;-70
2022/10/10 11:20:42;;;;;;;18.50;8.18;;;;;;;;;;4971399;28;20541;-71
2022/10/10 11:23:29;;;;;;;20.88;8.85;;;;;;;;;;4977034;28;20061;-70
2022/10/10 11:25:59;;;;;;;18.15;9.40;;;;;;;;;;4976264;28;20159;-70
2022/10/10 11:28:27;;;;;;;17.85;8.73;;;;;;;;;;4982351;28;20030;-70
2022/10/10 11:30:57;;;;;;;23.08;9.23;;;;;;;;;;4978840;28;20101;-70
2022/10/10 11:33:35;;;;;;;18.63;8.40;;;;;;;;;;4969534;28;20070;-70
2022/10/10 11:36:04;;;;;;;20.00;8.93;;;;;;;;;;4969398;28;20235;-70
2022/10/10 11:38:30;;;;;;;20.98;9.27;;;;;;;;;;4962477;28;20032;-71
2022/10/10 11:40:59;;;;;;;21.20;8.93;;;;;;;;;;4958870;28;20038;-70
2022/10/10 11:43:30;;;;;;;17.00;9.07;;;;;;;;;;4964379;28;20165;-70
2022/10/10 11:45:56;;;;;;;;;;;;;;;;;;4967575;28;20061;-70
2022/10/10 11:48:29;;;;;;;18.58;9.15;;;;;;;;;;4965486;28;20379;-70
2022/10/10 11:51:00;;;;;;;25.60;9.20;;;;;;;;;;4969944;28;20023;-70
2022/10/10 11:53:39;;;;;;;19.73;9.25;;;;;;;;;;4963184;28;20171;-70
2022/10/10 11:56:22;;;;;;;26.48;9.43;;;;;;;;;;4964609;28;20039;-70
2022/10/10 11:58:52;;;;;;;19.65;9.15;;;;;;;;;;4972528;28;20027;-70
2022/10/10 12:01:22;;;;;;;21.85;9.85;;;;;;;;;;4970168;28;20105;-70
2022/10/10 12:03:50;;;;;;;21.42;10.30;;;;;;;;;;4970115;28;20286;-69
2022/10/10 12:06:17;;;;;;;23.60;9.55;;;;;;;;;;4969769;28;20035;-70
2022/10/10 12:08:50;;;;;;;24.15;10.63;;;;;;;;;;4969981;28;20031;-70
2022/10/10 12:11:21;;;;;;;23.85;10.32;;;;;;;;;;4969271;28;20495;-69
2022/10/10 12:13:58;;;;;;;27.95;10.38;;;;;;;;;;4970293;28;20101;-69
2022/10/10 12:16:27;;;;;;;20.65;10.55;;;;;;;;;;4968235;28;20572;-70
2022/10/10 12:19:05;;;;;;;22.55;9.90;;;;;;;;;;4970426;28;20460;-69
2022/10/10 12:21:32;;;;;;;18.77;8.90;;;;;;;;;;4964438;28;20035;-71
2022/10/10 12:24:01;;;;;;;19.67;8.60;;;;;;;;;;4965416;28;20082;-70
2022/10/10 12:26:47;;;;;;;21.65;9.13;;;;;;;;;;4965213;28;20148;-71
2022/10/10 12:29:13;;;;;;;20.00;8.43;;;;;;;;;;4964148;28;20038;-70
2022/10/10 12:31:39;;;;;;;24.83;8.85;;;;;;;;;;4970594;28;20117;-70
2022/10/10 12:34:16;;;;;;;26.10;8.70;;;;;;;;;;4973375;28;20039;-70
2022/10/10 12:37:02;;;;;;;19.85;8.50;;;;;;;;;;4968915;28;20034;-70
2022/10/10 12:39:31;;;;;;;21.15;8.90;;;;;;;;;;4978733;28;20038;-70
2022/10/10 12:41:57;;;;;;;22.27;8.80;;;;;;;;;;4967413;28;20035;-70
2022/10/10 12:44:25;;;;;;;17.23;8.63;;;;;;;;;;4968147;28;20118;-70
2022/10/10 12:47:10;;;;;;;19.23;9.30;;;;;;;;;;4966547;28;20546;-70
2022/10/10 12:49:36;;;;;;;20.80;8.40;;;;;;;;;;4965206;28;20042;-70
2022/10/10 12:52:02;;;;;;;24.20;7.63;;;;;;;;;;4966531;28;20031;-70
2022/10/10 12:54:33;;;;;;;15.30;7.03;;;;;;;;;;4964713;28;20023;-70
2022/10/10 12:57:22;;;;;;;12.93;6.45;;;;;;;;;;4968318;28;20129;-71
2022/10/10 12:59:48;;;;;;;20.67;6.43;;;;;;;;;;4967286;28;20137;-70
2022/10/10 13:02:21;;;;;;;15.32;5.90;;;;;;;;;;4969414;28;20496;-70
2022/10/10 13:04:48;;;;;;;12.23;3.90;;;;;;;;;;4984437;28;20039;-70
2022/10/10 13:07:16;;;;;;;10.68;3.38;;;;;;;;;;4978092;28;20043;-70
2022/10/10 13:09:44;;;;;;;8.10;2.70;;;;;;;;;;4974197;28;20027;-70
2022/10/10 13:12:43;;;;;;;6.63;2.28;;;;;;;;;;4973845;28;20019;-71
2022/10/10 13:15:19;;;;;;;9.18;1.70;;;;;;;;;;4976165;28;20046;-70
2022/10/10 13:17:45;;;;;;;7.15;1.63;;;;;;;;;;4972402;28;20027;-71
2022/10/10 13:20:28;;;;;;;4.80;1.10;;;;;;;;;;4973182;28;20046;-71
2022/10/10 13:22:55;;;;;;;5.03;1.50;;;;;;;;;;4973176;28;20041;-70
2022/10/10 13:25:22;;;;;;;2.88;1.00;;;;;;;;;;4976486;28;20118;-71
2022/10/10 13:27:48;;;;;;;3.10;1.10;;;;;;;;;;4973529;28;20054;-71
2022/10/10 13:30:22;;;;;;;3.80;1.20;;;;;;;;;;4979205;28;20033;-71
2022/10/10 13:32:48;;;;;;;5.65;1.75;;;;;;;;;;4973894;28;20023;-71
2022/10/10 13:35:17;;;;;;;7.32;1.90;;;;;;;;;;4975446;28;20026;-72
2022/10/10 13:37:46;;;;;;;5.40;1.92;;;;;;;;;;4979007;28;20125;-71
2022/10/10 13:40:16;;;;;;;4.10;1.70;;;;;;;;;;4977206;28;20130;-72
2022/10/10 13:42:42;;;;;;;6.45;1.65;;;;;;;;;;4979616;28;20045;-71
2022/10/10 13:45:20;;;;;;;4.78;1.70;;;;;;;;;;4982203;28;20035;-71
2022/10/10 13:47:50;;;;;;;5.13;2.10;;;;;;;;;;4966698;28;20027;-72
2022/10/10 13:50:37;;;;;;;3.35;2.22;;;;;;;;;;4980200;28;20042;-72
2022/10/10 13:53:24;;;;;;;11.77;2.47;;;;;;;;;;4978111;28;20034;-73
2022/10/10 13:55:59;;;;;;;7.43;2.20;;;;;;;;;;4971826;28;20476;-72
2022/10/10 13:58:26;;;;;;;9.32;2.88;;;;;;;;;;4971630;28;20126;-72
2022/10/10 14:00:56;;;;;;;9.10;2.55;;;;;;;;;;4977877;28;20058;-73
2022/10/10 14:03:22;;;;;;;11.00;3.10;;;;;;;;;;5006179;28;20022;-72
2022/10/10 14:05:48;;;;;;;10.45;2.78;;;;;;;;;;4971838;28;20109;-72
2022/10/10 14:08:24;;;;;;;13.13;3.05;;;;;;;;;;4980621;28;20027;-72
2022/10/10 14:11:04;;;;;;;10.20;2.70;;;;;;;;;;4974992;28;20027;-72
2022/10/10 14:13:32;;;;;;;17.55;2.95;;;;;;;;;;4983913;28;20164;-72
2022/10/10 14:16:16;;;;;;;12.05;3.22;;;;;;;;;;4969523;28;20522;-72
2022/10/10 14:18:43;;;;;;;30.45;4.70;;;;;;;;;;4967935;28;20489;-72
2022/10/10 14:21:09;;;;;;;14.15;3.13;;;;;;;;;;4964912;28;20073;-72
2022/10/10 14:23:36;;;;;;;17.73;3.70;;;;;;;;;;4975333;28;20034;-72
2022/10/10 14:26:02;;;;;;;13.10;3.08;;;;;;;;;;5000939;28;20095;-72
2022/10/10 14:28:30;;;;;;;19.67;3.10;;;;;;;;;;4966800;28;20396;-71
2022/10/10 14:30:56;;;;;;;17.90;3.15;;;;;;;;;;4967430;28;20023;-72
2022/10/10 14:33:22;;;;;;;12.70;2.58;;;;;;;;;;4975969;28;20692;-72
2022/10/10 14:35:50;;;;;;;18.88;3.17;;;;;;;;;;4966045;28;20477;-72